Time;durP1;ratioP1;P1;durP2;ratioP2;P2;SDS_P1;SDS_P2;PMS_P1;PMS_P2;Temp;Humidity;BMP_temperature;BMP_pressure;BME280_temperature;BME280_humidity;BME280_pressure;Samples;Min_cycle;Max_cycle;Signal;HPM_P1;HPM_P2
2022/07/30 00:00:23;;;;;;;12.77;10.50;;;;;;;;;;5033107;28;20028;-70
2022/07/30 00:02:50;;;;;;;12.57;10.65;;;;;;;;;;5033094;28;20116;-70
2022/07/30 00:05:16;;;;;;;12.63;10.70;;;;;;;;;;5032519;28;20026;-70
2022/07/30 00:07:42;;;;;;;13.63;10.45;;;;;;;;;;5014786;28;20394;-70
2022/07/30 00:10:08;;;;;;;12.27;10.77;;;;;;;;;;5031769;28;20457;-70
2022/07/30 00:12:34;;;;;;;12.48;10.80;;;;;;;;;;5033065;28;20025;-70
2022/07/30 00:15:00;;;;;;;13.00;10.90;;;;;;;;;;5033158;28;20438;-70
2022/07/30 00:17:27;;;;;;;13.00;11.20;;;;;;;;;;5031742;28;20029;-71
2022/07/30 00:19:53;;;;;;;13.55;10.82;;;;;;;;;;5031192;28;20508;-70
2022/07/30 00:22:19;;;;;;;12.88;10.57;;;;;;;;;;5034726;28;20036;-71
2022/07/30 00:24:45;;;;;;;16.85;11.18;;;;;;;;;;5032912;28;20022;-70
2022/07/30 00:27:13;;;;;;;15.35;10.52;;;;;;;;;;5031404;28;20144;-70
2022/07/30 00:29:39;;;;;;;12.88;11.55;;;;;;;;;;5038465;28;20387;-69
2022/07/30 00:32:05;;;;;;;13.30;11.60;;;;;;;;;;5032711;28;20486;-71
2022/07/30 00:34:33;;;;;;;13.02;11.57;;;;;;;;;;5032295;28;20037;-71
2022/07/30 00:37:02;;;;;;;15.55;12.00;;;;;;;;;;5033223;28;20505;-71
2022/07/30 00:39:29;;;;;;;12.25;11.05;;;;;;;;;;5041084;28;20112;-71
2022/07/30 00:41:55;;;;;;;13.10;10.98;;;;;;;;;;5031776;28;20029;-71
2022/07/30 00:44:21;;;;;;;12.60;10.75;;;;;;;;;;5030808;28;20017;-71
2022/07/30 00:46:47;;;;;;;13.15;10.93;;;;;;;;;;5031647;28;20516;-71
2022/07/30 00:49:13;;;;;;;13.23;11.05;;;;;;;;;;5033564;28;20558;-71
2022/07/30 00:51:39;;;;;;;14.02;10.82;;;;;;;;;;5031141;28;20029;-71
2022/07/30 00:54:06;;;;;;;13.75;11.02;;;;;;;;;;5039226;28;20032;-71
2022/07/30 00:56:32;;;;;;;12.55;10.93;;;;;;;;;;5031342;28;20458;-72
2022/07/30 00:58:58;;;;;;;12.25;10.95;;;;;;;;;;5031151;28;20080;-71
2022/07/30 01:01:24;;;;;;;12.80;11.50;;;;;;;;;;5031731;28;20022;-70
2022/07/30 01:03:50;;;;;;;13.88;12.35;;;;;;;;;;5033854;28;20047;-71
2022/07/30 01:06:17;;;;;;;17.73;12.60;;;;;;;;;;5034260;28;20516;-70
2022/07/30 01:08:43;;;;;;;17.92;12.45;;;;;;;;;;5016951;28;20486;-71
2022/07/30 01:11:10;;;;;;;16.30;12.63;;;;;;;;;;5032053;28;20037;-70
2022/07/30 01:13:36;;;;;;;14.38;12.80;;;;;;;;;;5035568;28;20075;-70
2022/07/30 01:16:02;;;;;;;13.40;12.00;;;;;;;;;;5031236;28;20034;-71
2022/07/30 01:19:47;;;;;;;16.95;12.40;;;;;;;;;;5032551;28;20029;-71
2022/07/30 01:21:18;;;;;;;14.77;13.27;;;;;;;;;;5031822;28;20525;-71
2022/07/30 01:23:45;;;;;;;14.80;12.20;;;;;;;;;;5031030;28;20108;-71
2022/07/30 01:26:13;;;;;;;15.38;12.20;;;;;;;;;;5032437;28;20036;-71
2022/07/30 01:28:41;;;;;;;14.05;11.70;;;;;;;;;;5032979;28;20041;-71
2022/07/30 01:31:08;;;;;;;14.35;11.73;;;;;;;;;;5035086;28;20030;-71
2022/07/30 01:33:36;;;;;;;13.55;12.25;;;;;;;;;;5030342;28;20398;-71
2022/07/30 01:36:03;;;;;;;13.13;11.77;;;;;;;;;;5031489;28;20021;-71
2022/07/30 01:38:30;;;;;;;13.43;12.05;;;;;;;;;;5029784;28;20057;-73
2022/07/30 01:40:56;;;;;;;13.82;12.43;;;;;;;;;;5038637;28;20044;-70
2022/07/30 01:43:24;;;;;;;14.15;12.55;;;;;;;;;;5032206;28;20084;-70
2022/07/30 01:45:51;;;;;;;14.13;12.73;;;;;;;;;;5029945;28;20049;-72
2022/07/30 01:48:18;;;;;;;15.15;12.50;;;;;;;;;;5028745;28;20036;-71
2022/07/30 01:50:45;;;;;;;17.15;12.75;;;;;;;;;;5019395;28;20029;-71
2022/07/30 01:53:14;;;;;;;14.25;12.68;;;;;;;;;;5050327;28;20060;-70
2022/07/30 01:55:40;;;;;;;16.20;13.15;;;;;;;;;;5032556;28;20061;-72
2022/07/30 01:58:09;;;;;;;14.10;12.50;;;;;;;;;;5032665;28;20095;-71
2022/07/30 02:00:37;;;;;;;17.23;13.02;;;;;;;;;;5031658;28;20022;-71
2022/07/30 02:03:04;;;;;;;13.80;12.40;;;;;;;;;;5030981;28;20041;-71
2022/07/30 02:05:32;;;;;;;16.50;13.00;;;;;;;;;;5028048;28;20109;-70
2022/07/30 02:08:02;;;;;;;15.60;12.90;;;;;;;;;;5046106;28;20025;-70
2022/07/30 02:10:31;;;;;;;14.60;13.13;;;;;;;;;;5050832;28;20056;-71
2022/07/30 02:13:00;;;;;;;15.00;13.50;;;;;;;;;;5031653;28;20085;-71
2022/07/30 02:15:36;;;;;;;13.88;12.48;;;;;;;;;;5030993;28;20082;-71
2022/07/30 02:18:28;;;;;;;14.23;12.82;;;;;;;;;;5034005;28;20029;-71
2022/07/30 02:20:58;;;;;;;15.15;13.25;;;;;;;;;;5008426;28;20415;-71
2022/07/30 02:23:25;;;;;;;14.23;12.88;;;;;;;;;;5035025;28;20450;-71
2022/07/30 02:25:52;;;;;;;15.02;13.63;;;;;;;;;;5039500;28;20040;-70
2022/07/30 02:28:19;;;;;;;15.18;13.68;;;;;;;;;;5032582;28;20045;-71
2022/07/30 02:30:57;;;;;;;14.27;12.98;;;;;;;;;;5035512;28;20053;-70
2022/07/30 02:33:25;;;;;;;15.07;13.48;;;;;;;;;;5031227;28;20147;-71
2022/07/30 02:35:53;;;;;;;15.05;13.48;;;;;;;;;;5034879;28;20033;-71
2022/07/30 02:38:20;;;;;;;14.75;13.27;;;;;;;;;;5032965;28;20047;-70
2022/07/30 02:40:46;;;;;;;14.95;13.25;;;;;;;;;;5053439;28;20021;-71
2022/07/30 02:43:15;;;;;;;15.30;13.27;;;;;;;;;;5046082;28;20037;-71
2022/07/30 02:45:41;;;;;;;15.82;13.40;;;;;;;;;;5035864;28;20087;-71
2022/07/30 02:48:09;;;;;;;13.95;12.55;;;;;;;;;;5034887;28;20104;-70
2022/07/30 02:50:35;;;;;;;15.43;13.82;;;;;;;;;;5034828;28;20021;-70
2022/07/30 02:53:02;;;;;;;15.52;13.82;;;;;;;;;;5038626;28;20106;-70
2022/07/30 02:55:30;;;;;;;14.45;12.90;;;;;;;;;;5033662;28;20483;-70
2022/07/30 02:57:57;;;;;;;16.20;13.65;;;;;;;;;;5035009;28;20036;-71
2022/07/30 03:00:24;;;;;;;14.70;13.23;;;;;;;;;;5033052;28;20036;-70
2022/07/30 03:02:57;;;;;;;15.23;13.65;;;;;;;;;;5035513;28;20429;-70
2022/07/30 03:05:24;;;;;;;15.68;14.05;;;;;;;;;;5043264;28;20030;-70
2022/07/30 03:07:50;;;;;;;14.60;13.05;;;;;;;;;;5033958;28;20034;-70
2022/07/30 03:10:17;;;;;;;14.82;13.35;;;;;;;;;;5033078;28;20091;-71
2022/07/30 03:12:45;;;;;;;14.48;13.05;;;;;;;;;;5034365;28;20060;-70
2022/07/30 03:15:11;;;;;;;15.77;14.07;;;;;;;;;;5034002;28;20029;-70
2022/07/30 03:17:39;;;;;;;15.90;14.25;;;;;;;;;;5033482;28;20041;-70
2022/07/30 03:20:08;;;;;;;15.20;13.77;;;;;;;;;;5034187;28;20053;-70
2022/07/30 03:22:36;;;;;;;17.33;13.88;;;;;;;;;;5028890;28;20033;-69
2022/07/30 03:25:03;;;;;;;17.95;13.30;;;;;;;;;;5034416;28;20028;-71
2022/07/30 03:27:30;;;;;;;16.20;13.93;;;;;;;;;;5034267;28;20033;-71
2022/07/30 03:29:57;;;;;;;15.80;13.90;;;;;;;;;;5033933;28;20036;-70
2022/07/30 03:32:24;;;;;;;14.77;13.23;;;;;;;;;;5033291;28;20032;-70
2022/07/30 03:34:50;;;;;;;16.15;13.23;;;;;;;;;;5032260;28;20039;-70
2022/07/30 03:37:16;;;;;;;14.50;12.95;;;;;;;;;;5032753;28;20017;-71
2022/07/30 03:39:42;;;;;;;16.23;14.52;;;;;;;;;;5033455;28;20025;-70
2022/07/30 03:42:08;;;;;;;26.33;19.05;;;;;;;;;;5033464;28;20029;-71
2022/07/30 03:44:35;;;;;;;36.05;27.02;;;;;;;;;;5034001;28;20017;-70
2022/07/30 03:47:02;;;;;;;18.45;16.23;;;;;;;;;;5032783;28;20021;-71
2022/07/30 03:49:28;;;;;;;15.50;13.65;;;;;;;;;;5033555;28;20403;-71
2022/07/30 03:51:55;;;;;;;14.50;13.00;;;;;;;;;;5036551;28;20011;-71
2022/07/30 03:54:21;;;;;;;15.25;13.63;;;;;;;;;;5041785;28;20035;-70
2022/07/30 03:56:47;;;;;;;14.30;12.90;;;;;;;;;;5033057;28;20391;-71
2022/07/30 03:59:14;;;;;;;14.55;12.63;;;;;;;;;;5032529;28;20031;-71
2022/07/30 04:01:40;;;;;;;13.88;12.40;;;;;;;;;;5035520;28;20047;-70
2022/07/30 04:04:07;;;;;;;14.77;13.25;;;;;;;;;;5036933;28;20031;-70
2022/07/30 04:06:38;;;;;;;13.98;12.32;;;;;;;;;;5032834;28;20375;-71
2022/07/30 04:09:09;;;;;;;17.38;13.00;;;;;;;;;;5039643;28;20021;-70
2022/07/30 04:11:36;;;;;;;15.27;12.85;;;;;;;;;;5039438;28;20103;-71
2022/07/30 04:14:02;;;;;;;14.13;12.05;;;;;;;;;;5035926;28;20026;-71
2022/07/30 04:16:34;;;;;;;13.25;11.95;;;;;;;;;;5029894;28;20061;-71
2022/07/30 04:19:00;;;;;;;13.82;12.43;;;;;;;;;;5014710;28;20414;-70
2022/07/30 04:21:27;;;;;;;15.88;11.90;;;;;;;;;;5030072;28;20025;-69
2022/07/30 04:23:54;;;;;;;14.02;11.88;;;;;;;;;;5030871;28;20017;-71
2022/07/30 04:26:20;;;;;;;15.43;12.32;;;;;;;;;;5032950;28;20033;-71
2022/07/30 04:28:47;;;;;;;13.23;11.98;;;;;;;;;;5044208;28;20041;-70
2022/07/30 04:31:13;;;;;;;15.25;12.15;;;;;;;;;;5038136;28;20021;-70
2022/07/30 04:33:39;;;;;;;14.68;13.18;;;;;;;;;;5036647;28;20610;-71
2022/07/30 04:36:08;;;;;;;14.98;13.43;;;;;;;;;;5029385;28;20071;-70
2022/07/30 04:38:35;;;;;;;15.50;13.07;;;;;;;;;;5034735;28;20057;-70
2022/07/30 04:41:01;;;;;;;13.63;11.23;;;;;;;;;;5018507;28;20079;-70
2022/07/30 04:43:27;;;;;;;13.10;11.70;;;;;;;;;;5031495;28;20021;-73
2022/07/30 04:45:53;;;;;;;14.02;11.18;;;;;;;;;;5015646;28;20124;-70
2022/07/30 04:48:20;;;;;;;12.38;10.70;;;;;;;;;;5032584;28;20483;-81
2022/07/30 04:50:48;;;;;;;14.23;11.50;;;;;;;;;;5027260;28;20080;-80
2022/07/30 04:53:15;;;;;;;15.82;11.68;;;;;;;;;;5034703;28;20441;-76
2022/07/30 04:55:42;;;;;;;17.25;12.07;;;;;;;;;;5031872;28;20059;-79
2022/07/30 04:58:09;;;;;;;14.55;12.02;;;;;;;;;;5032184;28;20464;-76
2022/07/30 05:00:37;;;;;;;13.85;12.45;;;;;;;;;;5031847;28;20037;-77
2022/07/30 05:03:04;;;;;;;19.95;12.18;;;;;;;;;;5029382;28;20087;-69
2022/07/30 05:05:31;;;;;;;14.75;11.23;;;;;;;;;;5024587;28;20061;-69
2022/07/30 05:07:58;;;;;;;14.35;11.65;;;;;;;;;;5031395;28;20052;-69
2022/07/30 05:10:24;;;;;;;19.33;12.77;;;;;;;;;;5029333;28;20108;-69
2022/07/30 05:12:50;;;;;;;12.55;11.05;;;;;;;;;;5028171;28;20025;-71
2022/07/30 05:15:17;;;;;;;14.52;11.25;;;;;;;;;;5031913;28;20033;-70
2022/07/30 05:17:44;;;;;;;14.38;10.50;;;;;;;;;;5034539;28;20113;-74
2022/07/30 05:20:10;;;;;;;12.77;10.57;;;;;;;;;;5030366;28;20068;-71
2022/07/30 05:22:37;;;;;;;13.18;10.95;;;;;;;;;;5030902;28;20370;-71
2022/07/30 05:25:03;;;;;;;16.63;10.57;;;;;;;;;;5013335;28;20382;-70
2022/07/30 05:27:29;;;;;;;13.98;10.27;;;;;;;;;;5031871;28;20098;-71
2022/07/30 05:29:55;;;;;;;14.70;10.20;;;;;;;;;;5031768;28;20068;-71
2022/07/30 05:32:21;;;;;;;13.98;10.38;;;;;;;;;;5030309;28;20017;-71
2022/07/30 05:34:48;;;;;;;11.98;10.18;;;;;;;;;;5027352;28;20025;-71
2022/07/30 05:37:14;;;;;;;12.57;9.88;;;;;;;;;;5036376;28;20025;-71
2022/07/30 05:39:40;;;;;;;10.43;9.38;;;;;;;;;;5029233;28;20060;-71
2022/07/30 05:42:06;;;;;;;11.98;9.85;;;;;;;;;;5035646;28;20021;-72
2022/07/30 05:44:32;;;;;;;12.70;10.65;;;;;;;;;;5041616;28;20047;-73
2022/07/30 05:46:58;;;;;;;13.90;10.80;;;;;;;;;;5029592;28;20114;-71
2022/07/30 05:49:24;;;;;;;13.55;11.02;;;;;;;;;;5012947;28;20041;-71
2022/07/30 05:51:50;;;;;;;12.43;11.23;;;;;;;;;;5031137;28;20037;-71
2022/07/30 05:54:16;;;;;;;15.45;10.00;;;;;;;;;;5031672;28;20029;-72
2022/07/30 05:56:42;;;;;;;13.55;10.38;;;;;;;;;;5034478;28;20107;-73
2022/07/30 05:59:08;;;;;;;11.05;9.73;;;;;;;;;;5035506;28;20022;-72
2022/07/30 06:01:34;;;;;;;13.57;9.88;;;;;;;;;;5034513;28;20060;-72
2022/07/30 06:04:00;;;;;;;12.95;9.48;;;;;;;;;;5034021;28;20099;-74
2022/07/30 06:06:27;;;;;;;14.25;8.93;;;;;;;;;;5018859;28;20513;-75
2022/07/30 06:08:53;;;;;;;12.32;8.85;;;;;;;;;;5023436;28;20038;-70
2022/07/30 06:11:19;;;;;;;9.68;8.63;;;;;;;;;;5036959;28;20029;-75
2022/07/30 06:13:45;;;;;;;12.35;9.27;;;;;;;;;;5038439;28;20021;-73
2022/07/30 06:16:11;;;;;;;12.38;8.98;;;;;;;;;;5035628;28;20112;-73
2022/07/30 06:18:37;;;;;;;15.60;8.95;;;;;;;;;;5035162;28;20021;-74
2022/07/30 06:21:03;;;;;;;24.25;9.57;;;;;;;;;;5033250;28;20043;-75
2022/07/30 06:23:29;;;;;;;14.55;8.98;;;;;;;;;;5032911;28;20032;-79
2022/07/30 06:25:55;;;;;;;11.80;8.63;;;;;;;;;;5037597;28;20029;-74
2022/07/30 06:28:22;;;;;;;9.35;8.45;;;;;;;;;;5034863;28;20479;-74
2022/07/30 06:30:48;;;;;;;11.57;8.40;;;;;;;;;;5035306;28;20064;-73
2022/07/30 06:33:17;;;;;;;9.77;8.88;;;;;;;;;;5022670;28;20357;-71
2022/07/30 06:35:43;;;;;;;16.50;8.68;;;;;;;;;;5032282;28;20524;-71
2022/07/30 06:38:09;;;;;;;10.20;8.70;;;;;;;;;;5031846;28;20799;-72
2022/07/30 06:40:35;;;;;;;9.55;8.13;;;;;;;;;;5036906;28;20025;-72
2022/07/30 06:43:02;;;;;;;14.15;8.88;;;;;;;;;;5038324;28;20131;-74
2022/07/30 06:45:29;;;;;;;10.35;8.10;;;;;;;;;;5031726;28;20052;-72
2022/07/30 06:47:58;;;;;;;9.35;8.10;;;;;;;;;;5039273;28;20505;-72
2022/07/30 06:50:26;;;;;;;12.88;7.68;;;;;;;;;;5026859;28;20045;-73
2022/07/30 06:52:52;;;;;;;10.73;8.30;;;;;;;;;;5017498;28;20021;-73
2022/07/30 06:55:18;;;;;;;10.50;8.73;;;;;;;;;;4996477;28;20096;-73
2022/07/30 06:57:45;;;;;;;9.65;7.97;;;;;;;;;;5017216;28;20474;-71
2022/07/30 07:00:11;;;;;;;9.40;7.93;;;;;;;;;;5032938;28;20078;-72
2022/07/30 07:02:38;;;;;;;14.32;8.27;;;;;;;;;;5032224;28;20031;-76
2022/07/30 07:05:04;;;;;;;10.50;8.32;;;;;;;;;;5039334;28;20056;-75
2022/07/30 07:07:30;;;;;;;9.02;8.13;;;;;;;;;;5031120;28;20521;-74
2022/07/30 07:09:56;;;;;;;12.38;8.10;;;;;;;;;;5032981;28;20394;-75
2022/07/30 07:12:22;;;;;;;26.73;9.45;;;;;;;;;;5033779;28;20133;-84
2022/07/30 07:14:48;;;;;;;28.25;10.13;;;;;;;;;;5042182;28;20164;-82
2022/07/30 07:17:14;;;;;;;41.33;10.65;;;;;;;;;;5042148;28;20025;-82
2022/07/30 07:19:40;;;;;;;46.45;12.65;;;;;;;;;;5015105;28;20025;-79
2022/07/30 07:22:06;;;;;;;32.78;11.23;;;;;;;;;;5014382;28;20037;-80
2022/07/30 07:24:32;;;;;;;12.35;8.60;;;;;;;;;;5030824;28;20029;-81
2022/07/30 07:26:58;;;;;;;15.80;9.57;;;;;;;;;;5033167;28;20030;-81
2022/07/30 07:29:24;;;;;;;14.27;9.65;;;;;;;;;;5031544;28;20092;-82
2022/07/30 07:31:50;;;;;;;62.15;13.35;;;;;;;;;;5031456;28;20069;-84
2022/07/30 07:34:17;;;;;;;29.88;10.38;;;;;;;;;;5033932;28;20037;-83
2022/07/30 07:36:43;;;;;;;14.55;9.43;;;;;;;;;;5032042;28;20505;-80
2022/07/30 07:39:09;;;;;;;25.55;11.60;;;;;;;;;;5033198;28;20049;-72
2022/07/30 07:41:38;;;;;;;14.57;9.82;;;;;;;;;;5036372;28;20021;-73
2022/07/30 07:44:05;;;;;;;34.33;11.30;;;;;;;;;;5033194;28;20026;-75
2022/07/30 07:46:32;;;;;;;11.90;9.38;;;;;;;;;;5028190;28;20029;-68
2022/07/30 07:48:58;;;;;;;14.30;9.93;;;;;;;;;;5031665;28;20037;-69
2022/07/30 07:51:24;;;;;;;235.13;26.30;;;;;;;;;;5035008;28;20371;-67
2022/07/30 07:54:00;;;;;;;120.22;21.48;;;;;;;;;;5036381;28;20083;-69
2022/07/30 07:56:26;;;;;;;100.93;16.38;;;;;;;;;;5042974;28;20017;-73
2022/07/30 07:58:53;;;;;;;63.20;13.88;;;;;;;;;;5031785;28;20041;-65
2022/07/30 08:01:20;;;;;;;31.05;11.43;;;;;;;;;;5032984;28;20418;-64
2022/07/30 08:03:46;;;;;;;93.13;17.08;;;;;;;;;;5032594;28;20017;-66
2022/07/30 08:06:13;;;;;;;23.77;11.32;;;;;;;;;;5033425;28;20036;-71
2022/07/30 08:08:39;;;;;;;25.83;12.43;;;;;;;;;;5032424;28;20032;-67
2022/07/30 08:11:06;;;;;;;50.20;15.40;;;;;;;;;;5034931;28;20026;-69
2022/07/30 08:13:32;;;;;;;207.32;26.35;;;;;;;;;;5033118;28;20045;-73
2022/07/30 08:15:59;;;;;;;89.20;20.10;;;;;;;;;;5033029;28;20364;-73
2022/07/30 08:18:25;;;;;;;25.55;15.45;;;;;;;;;;5032057;28;20026;-69
2022/07/30 08:20:51;;;;;;;29.30;15.60;;;;;;;;;;5032252;28;20086;-67
2022/07/30 08:23:18;;;;;;;29.15;13.15;;;;;;;;;;5032731;28;20033;-69
2022/07/30 08:25:44;;;;;;;44.10;16.15;;;;;;;;;;5033102;28;20144;-70
2022/07/30 08:28:10;;;;;;;72.05;16.27;;;;;;;;;;5032512;28;20471;-66
2022/07/30 08:30:37;;;;;;;35.67;15.52;;;;;;;;;;5032316;28;20116;-65
2022/07/30 08:33:03;;;;;;;238.52;24.98;;;;;;;;;;5032758;28;20489;-68
2022/07/30 08:35:29;;;;;;;74.28;17.77;;;;;;;;;;5032475;28;20027;-71
2022/07/30 08:37:55;;;;;;;36.55;14.65;;;;;;;;;;5021970;28;20053;-68
2022/07/30 08:40:24;;;;;;;47.58;16.25;;;;;;;;;;5010543;28;20022;-70
2022/07/30 08:42:52;;;;;;;26.92;15.25;;;;;;;;;;5012810;28;20029;-68
2022/07/30 08:45:18;;;;;;;23.02;14.15;;;;;;;;;;5012302;28;20028;-67
2022/07/30 08:47:45;;;;;;;21.23;15.27;;;;;;;;;;5012574;28;20029;-69
2022/07/30 08:50:11;;;;;;;19.52;14.55;;;;;;;;;;5012246;28;20040;-68
2022/07/30 08:52:37;;;;;;;18.92;14.07;;;;;;;;;;5020068;28;20083;-68
2022/07/30 08:55:04;;;;;;;23.98;19.60;;;;;;;;;;5013155;28;20038;-67
2022/07/30 08:57:31;;;;;;;19.27;14.63;;;;;;;;;;5000043;28;20512;-69
2022/07/30 09:00:00;;;;;;;109.85;23.60;;;;;;;;;;5012572;28;20479;-66
2022/07/30 09:02:26;;;;;;;116.28;22.95;;;;;;;;;;5016827;28;20022;-69
2022/07/30 09:04:53;;;;;;;62.72;21.58;;;;;;;;;;5008553;28;20025;-76
2022/07/30 09:07:19;;;;;;;23.65;15.70;;;;;;;;;;5002641;28;20030;-74
2022/07/30 09:09:46;;;;;;;179.50;31.70;;;;;;;;;;5008369;28;20453;-76
2022/07/30 09:12:30;;;;;;;30.77;16.33;;;;;;;;;;4996619;28;20069;-74
2022/07/30 09:15:06;;;;;;;78.00;22.05;;;;;;;;;;5013971;28;20034;-81
2022/07/30 09:17:52;;;;;;;20.40;15.75;;;;;;;;;;5022758;28;20071;-79
2022/07/30 09:20:19;;;;;;;31.88;15.77;;;;;;;;;;5012337;28;20034;-78
2022/07/30 09:22:46;;;;;;;26.27;15.57;;;;;;;;;;5016062;28;20464;-81
2022/07/30 09:25:12;;;;;;;21.50;14.13;;;;;;;;;;5017673;28;20490;-80
2022/07/30 09:27:46;;;;;;;20.75;13.57;;;;;;;;;;4994321;28;20023;-81
2022/07/30 09:30:12;;;;;;;70.20;19.08;;;;;;;;;;5009546;28;20117;-81
2022/07/30 09:32:48;;;;;;;51.45;26.73;;;;;;;;;;5003239;28;20033;-80
2022/07/30 09:35:14;;;;;;;18.10;11.27;;;;;;;;;;5016202;28;20491;-81
2022/07/30 09:37:40;;;;;;;19.00;10.38;;;;;;;;;;5007452;28;20052;-79
2022/07/30 09:40:14;;;;;;;13.02;8.95;;;;;;;;;;4996918;28;20025;-74
2022/07/30 09:42:40;;;;;;;11.00;8.43;;;;;;;;;;5011368;28;20022;-73
2022/07/30 09:45:07;;;;;;;12.27;8.45;;;;;;;;;;5016860;28;20087;-76
2022/07/30 09:47:34;;;;;;;12.00;8.52;;;;;;;;;;4996493;28;20060;-74
2022/07/30 09:50:04;;;;;;;9.35;8.23;;;;;;;;;;5013942;28;20057;-81
2022/07/30 09:52:30;;;;;;;11.00;8.00;;;;;;;;;;4996957;28;20022;-78
2022/07/30 09:54:56;;;;;;;10.57;7.50;;;;;;;;;;5015972;28;20026;-78
2022/07/30 09:57:22;;;;;;;11.05;7.80;;;;;;;;;;4997328;28;20108;-77
2022/07/30 09:59:48;;;;;;;12.10;7.15;;;;;;;;;;5013961;28;20564;-77
2022/07/30 10:02:14;;;;;;;9.23;7.47;;;;;;;;;;5012405;28;20033;-72
2022/07/30 10:04:40;;;;;;;11.50;7.25;;;;;;;;;;5017809;28;20475;-77
2022/07/30 10:07:16;;;;;;;10.73;7.30;;;;;;;;;;5025317;28;20029;-74
2022/07/30 10:09:44;;;;;;;13.48;7.32;;;;;;;;;;5023612;28;20048;-73
2022/07/30 10:12:10;;;;;;;9.50;6.97;;;;;;;;;;5020861;28;20026;-76
2022/07/30 10:14:37;;;;;;;9.77;7.05;;;;;;;;;;5019413;28;20469;-81
2022/07/30 10:17:03;;;;;;;11.65;7.10;;;;;;;;;;5017971;28;20071;-79
2022/07/30 10:19:31;;;;;;;34.78;8.68;;;;;;;;;;5014970;28;20018;-74
2022/07/30 10:21:58;;;;;;;10.45;7.55;;;;;;;;;;5024217;28;20029;-78
2022/07/30 10:24:25;;;;;;;11.95;7.32;;;;;;;;;;5029763;28;20064;-76
2022/07/30 10:26:52;;;;;;;15.15;7.35;;;;;;;;;;5025300;28;20037;-81
2022/07/30 10:29:19;;;;;;;8.95;6.95;;;;;;;;;;5032363;28;20029;-80
2022/07/30 10:31:45;;;;;;;16.58;7.22;;;;;;;;;;5019359;28;20025;-74
2022/07/30 10:34:12;;;;;;;12.63;6.95;;;;;;;;;;5013572;28;20042;-73
2022/07/30 10:36:41;;;;;;;8.75;6.85;;;;;;;;;;5012647;28;20038;-76
2022/07/30 10:39:08;;;;;;;14.43;7.35;;;;;;;;;;5037487;28;20399;-72
2022/07/30 10:41:39;;;;;;;17.30;8.00;;;;;;;;;;5041227;28;20029;-76
2022/07/30 10:44:11;;;;;;;14.13;7.18;;;;;;;;;;5042938;28;20028;-73
2022/07/30 10:46:47;;;;;;;10.15;7.05;;;;;;;;;;5037991;28;20103;-73
2022/07/30 10:49:14;;;;;;;9.30;6.40;;;;;;;;;;5043411;28;20433;-78
2022/07/30 10:51:44;;;;;;;13.05;7.38;;;;;;;;;;5035595;28;20087;-80
2022/07/30 10:54:29;;;;;;;13.43;7.07;;;;;;;;;;5033564;28;20025;-82
2022/07/30 10:57:05;;;;;;;13.57;6.90;;;;;;;;;;5026761;28;20433;-74
2022/07/30 10:59:51;;;;;;;12.95;7.00;;;;;;;;;;5014845;28;20402;-82
2022/07/30 11:02:18;;;;;;;12.45;6.80;;;;;;;;;;5031206;28;20022;-73
2022/07/30 11:04:44;;;;;;;12.90;6.90;;;;;;;;;;5015254;28;20028;-72
2022/07/30 11:07:28;;;;;;;9.23;7.07;;;;;;;;;;5041023;28;20033;-79
2022/07/30 11:09:59;;;;;;;10.80;7.22;;;;;;;;;;5029401;28;20041;-73
2022/07/30 11:12:44;;;;;;;10.70;7.32;;;;;;;;;;5032890;28;20025;-68
2022/07/30 11:15:11;;;;;;;10.23;7.43;;;;;;;;;;5040391;28;20034;-71
2022/07/30 11:18:16;;;;;;;9.27;7.07;;;;;;;;;;5042445;28;20021;-78
2022/07/30 11:21:02;;;;;;;13.23;7.00;;;;;;;;;;4988677;28;20026;-69
2022/07/30 11:23:28;;;;;;;13.75;7.18;;;;;;;;;;4987571;28;20094;-79
2022/07/30 11:25:54;;;;;;;14.82;6.40;;;;;;;;;;4986442;28;20056;-68
2022/07/30 11:28:37;;;;;;;11.95;6.70;;;;;;;;;;4988834;28;20033;-70
2022/07/30 11:31:04;;;;;;;12.90;7.85;;;;;;;;;;4991840;28;20478;-69
2022/07/30 11:33:30;;;;;;;8.82;6.88;;;;;;;;;;4974850;28;20015;-71
2022/07/30 11:36:06;;;;;;;9.05;6.85;;;;;;;;;;4973053;28;20066;-74
2022/07/30 11:38:52;;;;;;;12.50;6.60;;;;;;;;;;4998642;28;20050;-73
2022/07/30 11:41:29;;;;;;;8.18;6.30;;;;;;;;;;4991331;28;20049;-71
2022/07/30 11:44:14;;;;;;;13.73;7.45;;;;;;;;;;5007182;28;20066;-79
2022/07/30 11:46:48;;;;;;;9.07;6.70;;;;;;;;;;5004988;28;20125;-71
2022/07/30 11:49:15;;;;;;;13.52;7.40;;;;;;;;;;4985975;28;20033;-78
2022/07/30 11:51:42;;;;;;;16.17;7.57;;;;;;;;;;5011107;28;20046;-75
2022/07/30 11:54:11;;;;;;;12.88;7.00;;;;;;;;;;5016220;28;20029;-78
2022/07/30 11:57:07;;;;;;;10.68;6.68;;;;;;;;;;5012918;28;20056;-73
2022/07/30 11:59:51;;;;;;;12.98;6.60;;;;;;;;;;4970429;28;20046;-74
2022/07/30 12:02:17;;;;;;;9.07;5.78;;;;;;;;;;4968853;28;20046;-72
2022/07/30 12:04:44;;;;;;;10.75;6.28;;;;;;;;;;4978007;28;20465;-69
2022/07/30 12:07:10;;;;;;;13.50;6.10;;;;;;;;;;4984184;28;20624;-72
2022/07/30 12:09:36;;;;;;;6.53;5.80;;;;;;;;;;4970943;28;20116;-73
2022/07/30 12:12:03;;;;;;;11.93;6.13;;;;;;;;;;4967492;28;20109;-69
2022/07/30 12:14:38;;;;;;;7.47;6.05;;;;;;;;;;4983055;28;20099;-69
2022/07/30 12:17:04;;;;;;;17.75;6.68;;;;;;;;;;4973443;28;20061;-70
2022/07/30 12:19:30;;;;;;;7.78;6.25;;;;;;;;;;4972553;28;20181;-74
2022/07/30 12:21:59;;;;;;;11.80;6.45;;;;;;;;;;4983782;28;20034;-75
2022/07/30 12:24:25;;;;;;;10.18;6.05;;;;;;;;;;4973561;28;20035;-69
2022/07/30 12:26:52;;;;;;;11.77;6.43;;;;;;;;;;4972324;28;20043;-70
2022/07/30 12:29:18;;;;;;;7.57;5.88;;;;;;;;;;4975963;28;20053;-70
2022/07/30 12:31:52;;;;;;;9.13;6.55;;;;;;;;;;4988332;28;20034;-69
2022/07/30 12:34:26;;;;;;;13.50;6.80;;;;;;;;;;4969453;28;20040;-68
2022/07/30 12:36:53;;;;;;;14.75;6.85;;;;;;;;;;4994051;28;20037;-70
2022/07/30 12:39:20;;;;;;;13.25;6.35;;;;;;;;;;5039771;28;20057;-75
2022/07/30 12:41:50;;;;;;;13.60;7.47;;;;;;;;;;5030597;28;20083;-80
2022/07/30 12:44:36;;;;;;;10.68;6.40;;;;;;;;;;5028429;28;20079;-71
2022/07/30 12:47:03;;;;;;;8.95;6.60;;;;;;;;;;5029448;28;20033;-70
2022/07/30 12:49:30;;;;;;;16.42;6.82;;;;;;;;;;5025737;28;20049;-73
2022/07/30 12:51:57;;;;;;;6.95;6.10;;;;;;;;;;5026698;28;20080;-68
2022/07/30 12:54:23;;;;;;;8.52;6.15;;;;;;;;;;5028491;28;20168;-71
2022/07/30 12:56:57;;;;;;;9.73;6.28;;;;;;;;;;5029530;28;20022;-70
2022/07/30 12:59:24;;;;;;;22.80;7.53;;;;;;;;;;5029119;28;20022;-70
2022/07/30 13:01:52;;;;;;;14.65;7.15;;;;;;;;;;5027117;28;20156;-72
2022/07/30 13:04:18;;;;;;;14.00;6.78;;;;;;;;;;5029464;28;20025;-71
2022/07/30 13:06:44;;;;;;;12.32;6.93;;;;;;;;;;5028933;28;20025;-74
2022/07/30 13:09:18;;;;;;;9.48;6.65;;;;;;;;;;5027582;28;20025;-73
2022/07/30 13:11:45;;;;;;;7.70;5.65;;;;;;;;;;5027074;28;20022;-69
2022/07/30 13:14:12;;;;;;;8.00;6.00;;;;;;;;;;5029317;28;20025;-73
2022/07/30 13:16:39;;;;;;;16.05;6.13;;;;;;;;;;5031275;28;20052;-70
2022/07/30 13:19:05;;;;;;;21.60;7.47;;;;;;;;;;5028197;28;20033;-80
2022/07/30 13:21:32;;;;;;;156.95;21.95;;;;;;;;;;5027424;28;20018;-74
2022/07/30 13:23:58;;;;;;;36.33;9.43;;;;;;;;;;5024085;28;20056;-75
2022/07/30 13:26:25;;;;;;;57.53;12.55;;;;;;;;;;5029261;28;20030;-73
2022/07/30 13:28:51;;;;;;;15.02;6.65;;;;;;;;;;5026562;28;20069;-73
2022/07/30 13:31:17;;;;;;;13.10;6.40;;;;;;;;;;5029667;28;20096;-76
2022/07/30 13:33:44;;;;;;;15.43;6.30;;;;;;;;;;5026851;28;20033;-75
2022/07/30 13:36:10;;;;;;;8.18;5.55;;;;;;;;;;5030010;28;20060;-70
2022/07/30 13:38:36;;;;;;;13.63;5.88;;;;;;;;;;5021188;28;20076;-67
2022/07/30 13:41:06;;;;;;;28.08;7.00;;;;;;;;;;5020208;28;20053;-67
2022/07/30 13:43:33;;;;;;;14.05;5.80;;;;;;;;;;5007022;28;20029;-67
2022/07/30 13:45:59;;;;;;;7.30;5.20;;;;;;;;;;5005764;28;20049;-67
2022/07/30 13:48:25;;;;;;;24.40;6.85;;;;;;;;;;5014596;28;20029;-67
2022/07/30 13:50:51;;;;;;;8.93;5.60;;;;;;;;;;5010519;28;20518;-67
2022/07/30 13:53:20;;;;;;;10.57;6.10;;;;;;;;;;5011759;28;20384;-68
2022/07/30 13:55:46;;;;;;;28.20;6.85;;;;;;;;;;5010530;28;20022;-69
2022/07/30 13:58:12;;;;;;;11.93;6.15;;;;;;;;;;5009116;28;20125;-69
2022/07/30 14:00:39;;;;;;;7.13;5.47;;;;;;;;;;5012438;28;20026;-68
2022/07/30 14:03:07;;;;;;;13.05;5.80;;;;;;;;;;5014303;28;20437;-68
2022/07/30 14:05:34;;;;;;;12.75;6.40;;;;;;;;;;5010628;28;20045;-69
2022/07/30 14:08:01;;;;;;;12.98;5.13;;;;;;;;;;5010776;28;20479;-69
2022/07/30 14:10:29;;;;;;;16.58;5.05;;;;;;;;;;5011440;28;20049;-72
2022/07/30 14:12:58;;;;;;;12.75;4.82;;;;;;;;;;5010626;28;20046;-68
2022/07/30 14:15:28;;;;;;;8.10;4.95;;;;;;;;;;4992957;28;20022;-68
2022/07/30 14:17:58;;;;;;;16.40;5.35;;;;;;;;;;5012884;28;20092;-69
2022/07/30 14:20:24;;;;;;;33.50;8.27;;;;;;;;;;5010204;28;20518;-69
2022/07/30 14:22:50;;;;;;;42.85;8.13;;;;;;;;;;5015306;28;20030;-69
2022/07/30 14:25:17;;;;;;;23.17;5.95;;;;;;;;;;5000767;28;20022;-68
2022/07/30 14:27:49;;;;;;;55.10;9.13;;;;;;;;;;4996892;28;20026;-68